createdAt,value
2017-11-17T00:00:11.660Z,54.78
2017-11-17T00:02:39.183Z,52.30
2017-11-17T00:05:06.716Z,49.40
2017-11-17T00:07:34.284Z,52.05
2017-11-17T00:10:01.800Z,47.10
2017-11-17T00:12:29.307Z,58.67
2017-11-17T00:14:57.448Z,53.63
2017-11-17T00:17:24.975Z,50.45
2017-11-17T00:19:52.496Z,55.33
2017-11-17T00:22:20.401Z,46.95
2017-11-17T00:24:48.693Z,53.53
2017-11-17T00:27:16.722Z,49.67
2017-11-17T00:29:44.299Z,55.15
2017-11-17T00:32:11.821Z,78.82
2017-11-17T00:34:40.124Z,52.67
2017-11-17T00:37:07.695Z,56.35
2017-11-17T00:39:35.362Z,66.12
2017-11-17T00:42:02.888Z,46.90
2017-11-17T00:44:30.664Z,67.93
2017-11-17T00:46:59.887Z,55.12
2017-11-17T00:49:27.409Z,50.97
2017-11-17T00:51:54.996Z,56.37
2017-11-17T00:54:22.512Z,48.27
2017-11-17T00:56:50.830Z,58.22
2017-11-17T00:59:18.413Z,62.03
2017-11-17T01:01:45.942Z,61.92
2017-11-17T01:04:13.867Z,53.80
2017-11-17T01:06:41.460Z,54.67
2017-11-17T01:09:08.972Z,55.58
2017-11-17T01:11:37.240Z,53.80
2017-11-17T01:14:04.891Z,54.65
2017-11-17T01:16:32.396Z,50.25
2017-11-17T01:18:59.908Z,58.60
2017-11-17T01:21:27.889Z,55.55
2017-11-17T01:23:55.413Z,58.87
2017-11-17T01:26:22.923Z,56.20
2017-11-17T01:28:50.478Z,56.33
2017-11-17T01:31:17.989Z,56.42
2017-11-17T01:33:45.977Z,58.80
2017-11-17T01:36:13.553Z,51.37
2017-11-17T01:38:41.436Z,63.35
2017-11-17T01:41:09.495Z,51.37
2017-11-17T01:43:37.124Z,60.83
2017-11-17T01:46:04.697Z,49.45
2017-11-17T01:48:32.232Z,62.15
2017-11-17T01:51:00.173Z,58.73
2017-11-17T01:53:27.903Z,46.73
2017-11-17T01:55:56.036Z,54.80
2017-11-17T01:58:23.556Z,61.45
2017-11-17T02:00:51.127Z,58.00
2017-11-17T02:03:19.092Z,53.85
2017-11-17T02:05:46.612Z,52.25
2017-11-17T02:08:14.149Z,71.50
2017-11-17T02:10:41.676Z,71.23
2017-11-17T02:13:09.751Z,57.88
2017-11-17T02:15:37.676Z,53.90
2017-11-17T02:18:05.697Z,57.13
2017-11-17T02:20:33.243Z,60.35
2017-11-17T02:23:00.864Z,66.00
2017-11-17T02:25:28.371Z,58.57
2017-11-17T02:27:55.887Z,70.13
2017-11-17T02:30:23.498Z,56.83
2017-11-17T02:32:51.021Z,64.85
2017-11-17T02:35:18.772Z,65.62
2017-11-17T02:37:46.344Z,59.13
2017-11-17T02:40:13.790Z,69.30
2017-11-17T02:42:41.364Z,69.47
2017-11-17T02:45:10.444Z,62.13
2017-11-17T02:47:37.960Z,65.87
2017-11-17T02:50:05.469Z,65.40
2017-11-17T02:52:33.011Z,63.67
2017-11-17T02:55:00.523Z,66.93
2017-11-17T02:57:28.089Z,78.90
2017-11-17T02:59:55.600Z,63.27
2017-11-17T03:02:23.119Z,61.53
2017-11-17T03:04:51.315Z,59.40
2017-11-17T03:07:18.819Z,65.67
2017-11-17T03:09:46.338Z,68.20
2017-11-17T03:12:13.908Z,67.20
2017-11-17T03:14:41.412Z,73.33
2017-11-17T03:17:08.924Z,46.40
2017-11-17T03:19:36.501Z,67.50
2017-11-17T03:22:04.021Z,71.00
2017-11-17T03:24:31.536Z,64.30
2017-11-17T03:26:59.100Z,66.73
2017-11-17T03:29:26.615Z,61.20
2017-11-17T03:31:54.124Z,63.77
2017-11-17T03:34:21.797Z,66.62
2017-11-17T03:36:49.497Z,59.53
2017-11-17T03:39:17.016Z,60.05
2017-11-17T03:41:44.819Z,65.87
2017-11-17T03:44:12.331Z,66.82
2017-11-17T03:46:40.617Z,61.93
2017-11-17T03:49:09.120Z,68.12
2017-11-17T03:51:36.636Z,55.57
2017-11-17T03:54:04.156Z,57.50
2017-11-17T03:56:31.688Z,57.33
2017-11-17T03:58:59.204Z,57.83
2017-11-17T04:01:26.725Z,67.13
2017-11-17T04:03:54.322Z,55.35
2017-11-17T04:06:21.838Z,65.62
2017-11-17T04:08:49.353Z,65.82
2017-11-17T04:11:16.916Z,66.90
2017-11-17T04:13:44.423Z,69.77
2017-11-17T04:16:11.941Z,64.87
2017-11-17T04:18:39.496Z,63.50
2017-11-17T04:21:07.003Z,58.33
2017-11-17T04:23:34.839Z,67.37
2017-11-17T04:26:02.380Z,74.20
2017-11-17T04:28:30.653Z,73.33
2017-11-17T04:30:58.938Z,76.75
2017-11-17T04:33:27.264Z,71.27
2017-11-17T04:35:55.544Z,75.53
2017-11-17T04:38:23.048Z,86.83
2017-11-17T04:40:50.699Z,63.30
2017-11-17T04:43:18.555Z,65.43
2017-11-17T04:45:46.061Z,74.43
2017-11-17T04:48:13.615Z,72.37
2017-11-17T04:50:41.132Z,90.25
2017-11-17T04:53:08.639Z,80.80
2017-11-17T04:55:36.333Z,76.37
2017-11-17T04:58:03.844Z,78.50
2017-11-17T05:00:31.360Z,81.70
2017-11-17T05:02:58.925Z,84.35
2017-11-17T05:05:26.454Z,74.87
2017-11-17T05:07:53.978Z,92.25
2017-11-17T05:10:21.547Z,94.97
2017-11-17T05:12:49.068Z,97.07
2017-11-17T05:15:16.349Z,101.50
2017-11-17T05:17:44.034Z,100.33
2017-11-17T05:20:11.711Z,94.83
2017-11-17T05:22:39.232Z,100.95
2017-11-17T05:25:06.809Z,118.67
2017-11-17T05:27:34.337Z,102.82
2017-11-17T05:30:01.853Z,109.03
2017-11-17T05:32:29.421Z,96.40
2017-11-17T05:34:57.622Z,91.40
2017-11-17T05:37:25.140Z,91.18
2017-11-17T05:39:52.712Z,115.70
2017-11-17T05:42:20.229Z,84.55
2017-11-17T05:44:47.745Z,81.20
2017-11-17T05:47:16.153Z,94.13
2017-11-17T05:49:43.680Z,95.22
2017-11-17T05:52:11.200Z,90.32
2017-11-17T05:54:39.068Z,102.75
2017-11-17T05:57:06.609Z,84.50
2017-11-17T05:59:34.123Z,97.88
2017-11-17T06:02:02.579Z,102.93
2017-11-17T06:04:30.135Z,108.93
2017-11-17T06:06:57.668Z,106.50
2017-11-17T06:09:25.324Z,76.30
2017-11-17T06:11:52.842Z,107.17
2017-11-17T06:14:20.369Z,112.10
2017-11-17T06:16:47.940Z,127.30
2017-11-17T06:19:15.452Z,99.53
2017-11-17T06:21:42.965Z,85.32
2017-11-17T06:24:10.620Z,98.68
2017-11-17T06:26:38.144Z,142.13
2017-11-17T06:29:05.870Z,106.30
2017-11-17T06:31:33.417Z,117.00
2017-11-17T06:34:00.940Z,106.15
2017-11-17T06:36:28.502Z,79.87
2017-11-17T06:38:56.024Z,81.23
2017-11-17T06:41:23.544Z,108.32
2017-11-17T06:43:51.106Z,91.22
2017-11-17T06:46:18.657Z,125.45
2017-11-17T06:48:46.195Z,86.65
2017-11-17T06:51:13.844Z,89.43
2017-11-17T06:53:41.392Z,103.55
2017-11-17T06:56:08.914Z,102.93
2017-11-17T06:58:38.148Z,90.43
2017-11-17T07:01:05.676Z,81.23
2017-11-17T07:03:33.204Z,104.63
2017-11-17T07:06:00.934Z,104.40
2017-11-17T07:08:28.449Z,125.85
2017-11-17T07:10:56.641Z,95.47
2017-11-17T07:13:24.216Z,103.93
2017-11-17T07:15:52.516Z,92.20
2017-11-17T07:18:20.792Z,87.97
2017-11-17T07:20:48.342Z,86.37
2017-11-17T07:23:15.860Z,88.07
2017-11-17T07:25:43.383Z,89.82
2017-11-17T07:28:10.960Z,71.60
2017-11-17T07:30:38.467Z,84.87
2017-11-17T07:33:05.976Z,84.60
2017-11-17T07:35:33.526Z,86.28
2017-11-17T07:38:01.061Z,102.60
2017-11-17T07:40:28.588Z,84.20
2017-11-17T07:42:56.152Z,80.23
2017-11-17T07:45:23.673Z,78.77
2017-11-17T07:47:51.188Z,62.10
2017-11-17T07:50:18.732Z,81.00
2017-11-17T07:52:46.245Z,65.47
2017-11-17T07:55:13.756Z,80.37
2017-11-17T07:57:41.324Z,90.20
2017-11-17T08:00:08.830Z,95.13
2017-11-17T08:02:36.349Z,68.90
2017-11-17T08:05:03.919Z,84.83
2017-11-17T08:07:31.433Z,80.40
2017-11-17T08:09:58.958Z,67.67
2017-11-17T08:12:26.531Z,79.12
2017-11-17T08:14:54.048Z,83.90
2017-11-17T08:20:17.296Z,80.97
2017-11-17T08:22:44.876Z,75.90
2017-11-17T08:25:12.396Z,68.97
2017-11-17T08:27:39.916Z,78.47
2017-11-17T08:30:07.461Z,85.87
2017-11-17T08:32:35.004Z,96.03
2017-11-17T08:35:02.517Z,91.60
2017-11-17T08:37:30.473Z,86.13
2017-11-17T08:39:58.000Z,75.90
2017-11-17T08:42:26.276Z,102.73
2017-11-17T08:44:54.599Z,94.00
2017-11-17T08:47:22.136Z,87.97
2017-11-17T08:49:49.649Z,70.13
2017-11-17T08:52:17.192Z,79.77
2017-11-17T08:54:44.697Z,93.07
2017-11-17T08:57:12.209Z,69.80
2017-11-17T08:59:39.778Z,79.80
2017-11-17T09:02:07.287Z,84.07
2017-11-17T09:04:34.806Z,73.23
2017-11-17T09:07:02.681Z,79.83
2017-11-17T09:09:30.301Z,95.33
2017-11-17T09:11:57.808Z,120.40
2017-11-17T09:14:25.344Z,84.70
2017-11-17T09:16:52.861Z,83.27
2017-11-17T09:19:20.403Z,85.93
2017-11-17T09:21:47.974Z,79.13
2017-11-17T09:24:15.497Z,72.43
2017-11-17T09:26:43.001Z,80.57
2017-11-17T09:29:10.562Z,83.93
2017-11-17T09:31:38.115Z,82.87
2017-11-17T09:34:05.624Z,81.80
2017-11-17T09:36:33.164Z,82.80
2017-11-17T09:39:00.679Z,68.17
2017-11-17T09:41:28.207Z,100.73
2017-11-17T09:43:55.784Z,79.33
2017-11-17T09:46:23.288Z,75.40
2017-11-17T09:48:50.792Z,99.20
2017-11-17T09:51:18.361Z,72.80
2017-11-17T09:53:46.640Z,84.07
2017-11-17T09:56:14.928Z,89.27
2017-11-17T09:58:42.488Z,80.33
2017-11-17T10:01:10.009Z,77.10
2017-11-17T10:03:37.512Z,85.73
2017-11-17T10:06:05.075Z,84.47
2017-11-17T10:08:32.586Z,103.40
2017-11-17T10:11:00.092Z,89.00
2017-11-17T10:13:27.659Z,78.93
2017-11-17T10:15:55.168Z,98.90
2017-11-17T10:18:22.667Z,84.73
2017-11-17T10:20:50.230Z,100.93
2017-11-17T10:23:17.744Z,90.10
2017-11-17T10:25:45.248Z,77.43
2017-11-17T10:28:12.805Z,92.73
2017-11-17T10:30:40.316Z,74.50
2017-11-17T10:33:07.840Z,68.30
2017-11-17T10:35:35.392Z,81.77
2017-11-17T10:38:03.197Z,66.30
2017-11-17T10:40:30.707Z,65.13
2017-11-17T10:42:58.269Z,79.40
2017-11-17T10:45:25.771Z,63.27
2017-11-17T10:47:53.280Z,65.67
2017-11-17T10:50:20.853Z,76.93
2017-11-17T10:52:48.359Z,89.40
2017-11-17T10:55:15.861Z,79.90
2017-11-17T10:57:43.420Z,90.70
2017-11-17T11:00:10.921Z,94.73
2017-11-17T11:02:38.445Z,70.63
2017-11-17T11:05:06.010Z,63.00
2017-11-17T11:07:33.520Z,79.67
2017-11-17T11:10:07.741Z,64.53
2017-11-17T11:12:35.385Z,60.23
2017-11-17T11:15:02.889Z,79.13
2017-11-17T11:17:30.545Z,75.80
2017-11-17T11:19:58.060Z,64.47
2017-11-17T11:22:25.580Z,66.70
2017-11-17T11:24:53.120Z,67.87
2017-11-17T11:27:20.629Z,64.77
2017-11-17T11:29:48.135Z,74.20
2017-11-17T11:32:15.688Z,59.10
2017-11-17T11:34:43.187Z,63.97
2017-11-17T11:37:10.685Z,54.93
2017-11-17T11:39:38.216Z,76.40
2017-11-17T11:42:05.729Z,75.57
2017-11-17T11:44:33.277Z,58.97
2017-11-17T11:47:00.780Z,59.80
2017-11-17T11:49:28.280Z,59.73
2017-11-17T11:51:55.842Z,59.07
2017-11-17T11:54:23.359Z,54.50
2017-11-17T11:56:50.872Z,59.20
2017-11-17T11:59:18.447Z,66.23
2017-11-17T12:01:45.960Z,70.60
2017-11-17T12:04:13.493Z,56.03
2017-11-17T12:06:42.279Z,57.90
2017-11-17T12:09:09.780Z,53.70
2017-11-17T12:11:37.297Z,47.27
2017-11-17T12:14:04.968Z,46.97
2017-11-17T12:16:33.239Z,46.03
2017-11-17T12:19:01.707Z,44.93
2017-11-17T12:21:29.269Z,41.70
2017-11-17T12:23:56.779Z,39.13
2017-11-17T12:26:24.291Z,47.13
2017-11-17T12:28:51.853Z,42.13
2017-11-17T12:31:19.364Z,49.30
2017-11-17T12:33:46.867Z,45.07
2017-11-17T12:36:14.420Z,41.93
2017-11-17T12:38:41.932Z,43.07
2017-11-17T12:41:09.440Z,47.33
2017-11-17T12:43:36.997Z,46.30
2017-11-17T12:46:04.509Z,52.33
2017-11-17T12:48:32.025Z,47.87
2017-11-17T12:50:59.563Z,58.13
2017-11-17T12:53:27.072Z,42.43
2017-11-17T12:55:54.626Z,47.10
2017-11-17T12:58:22.189Z,42.00
2017-11-17T13:00:49.698Z,49.13
2017-11-17T13:03:17.208Z,45.43
2017-11-17T13:05:44.857Z,44.03
2017-11-17T13:08:12.364Z,51.47
2017-11-17T13:10:39.877Z,48.20
2017-11-17T13:13:07.436Z,50.97
2017-11-17T13:15:34.949Z,42.17
2017-11-17T13:18:02.462Z,39.27
2017-11-17T13:20:30.594Z,47.20
2017-11-17T13:22:58.118Z,43.43
2017-11-17T13:25:25.639Z,54.93
2017-11-17T13:27:53.171Z,47.07
2017-11-17T13:30:20.689Z,41.10
2017-11-17T13:32:48.268Z,45.07
2017-11-17T13:35:15.789Z,39.23
2017-11-17T13:37:43.292Z,46.80
2017-11-17T13:40:11.440Z,43.73
2017-11-17T13:42:38.958Z,48.57
2017-11-17T13:45:06.481Z,36.13
2017-11-17T13:47:34.040Z,54.37
2017-11-17T13:50:01.556Z,46.60
2017-11-17T13:52:29.181Z,45.70
2017-11-17T13:54:56.743Z,44.30
2017-11-17T13:57:24.261Z,42.73
2017-11-17T13:59:51.784Z,39.33
2017-11-17T14:02:19.353Z,45.10
2017-11-17T14:04:46.862Z,46.73
2017-11-17T14:07:14.372Z,49.20
2017-11-17T14:09:41.775Z,41.17
2017-11-17T14:12:09.293Z,42.60
2017-11-17T14:14:36.797Z,42.53
2017-11-17T14:17:04.953Z,45.03
2017-11-17T14:19:33.197Z,55.23
2017-11-17T14:22:00.779Z,60.63
2017-11-17T14:24:29.080Z,46.07
2017-11-17T14:26:56.669Z,43.53
2017-11-17T14:29:25.059Z,47.10
2017-11-17T14:31:52.569Z,46.83
2017-11-17T14:34:20.080Z,52.70
2017-11-17T14:36:47.635Z,56.70
2017-11-17T14:39:15.144Z,47.20
2017-11-17T14:41:42.655Z,46.87
2017-11-17T14:44:10.225Z,38.47
2017-11-17T14:46:37.724Z,44.27
2017-11-17T14:49:05.232Z,56.53
2017-11-17T14:51:33.104Z,48.83
2017-11-17T14:54:00.608Z,52.47
2017-11-17T14:56:28.112Z,52.93
2017-11-17T14:58:55.672Z,51.43
2017-11-17T15:01:23.176Z,56.67
2017-11-17T15:03:50.684Z,50.77
2017-11-17T15:06:18.274Z,54.43
2017-11-17T15:08:46.580Z,51.60
2017-11-17T15:11:14.088Z,73.50
2017-11-17T15:13:41.660Z,63.00
2017-11-17T15:16:09.169Z,56.23
2017-11-17T15:18:37.101Z,65.97
2017-11-17T15:21:04.784Z,60.73
2017-11-17T15:23:32.052Z,64.43
2017-11-17T15:25:59.556Z,51.20
2017-11-17T15:28:27.121Z,65.83
2017-11-17T15:30:54.637Z,62.23
2017-11-17T15:33:22.149Z,77.33
2017-11-17T15:35:50.488Z,68.77
2017-11-17T15:38:18.212Z,62.40
2017-11-17T15:40:45.921Z,67.80
2017-11-17T15:43:13.451Z,60.07
2017-11-17T15:45:40.973Z,69.77
2017-11-17T15:48:08.548Z,61.40
2017-11-17T15:50:36.052Z,74.33
2017-11-17T15:53:03.556Z,85.60
2017-11-17T15:55:31.156Z,65.23
2017-11-17T15:57:58.671Z,78.60
2017-11-17T16:00:26.181Z,65.43
2017-11-17T16:02:53.744Z,84.00
2017-11-17T16:05:21.243Z,65.80
2017-11-17T16:07:48.761Z,73.70
2017-11-17T16:10:17.032Z,77.10
2017-11-17T16:12:44.592Z,82.37
2017-11-17T16:15:12.711Z,80.37
2017-11-17T16:17:40.307Z,68.50
2017-11-17T16:20:07.815Z,77.50
2017-11-17T16:22:35.344Z,87.37
2017-11-17T16:25:03.076Z,77.13
2017-11-17T16:27:30.805Z,85.57
2017-11-17T16:29:58.384Z,95.27
2017-11-17T16:32:26.720Z,90.57
2017-11-17T16:34:55.353Z,78.53
2017-11-17T16:37:23.187Z,80.03
2017-11-17T16:39:50.877Z,74.80
2017-11-17T16:42:18.470Z,70.57
2017-11-17T16:44:45.997Z,81.90
2017-11-17T16:47:14.109Z,74.37
2017-11-17T16:49:41.615Z,79.07
2017-11-17T16:52:09.128Z,70.17
2017-11-17T16:54:36.705Z,80.67
2017-11-17T16:57:04.208Z,66.77
2017-11-17T16:59:31.717Z,67.37
2017-11-17T17:01:59.377Z,65.20
2017-11-17T17:04:26.893Z,61.70
2017-11-17T17:06:55.164Z,67.77
2017-11-17T17:09:23.484Z,71.43
2017-11-17T17:11:50.995Z,86.27
2017-11-17T17:14:18.504Z,66.43
2017-11-17T17:16:46.912Z,68.40
2017-11-17T17:19:14.432Z,69.53
2017-11-17T17:21:42.228Z,58.93
2017-11-17T17:24:09.798Z,63.83
2017-11-17T17:26:37.605Z,60.27
2017-11-17T17:29:05.128Z,61.33
2017-11-17T17:31:33.412Z,53.50
2017-11-17T17:34:01.086Z,55.83
2017-11-17T17:36:28.588Z,61.50
2017-11-17T17:38:56.092Z,74.50
2017-11-17T17:41:23.694Z,76.47
2017-11-17T17:43:51.188Z,65.27
2017-11-17T17:46:18.698Z,78.97
2017-11-17T17:48:46.281Z,67.03
2017-11-17T17:51:13.788Z,71.50
2017-11-17T17:53:41.292Z,72.77
2017-11-17T17:56:08.833Z,60.53
2017-11-17T17:58:36.335Z,84.80
2017-11-17T18:01:03.844Z,70.77
2017-11-17T18:03:31.921Z,77.93
2017-11-17T18:05:59.441Z,57.73
2017-11-17T18:08:26.955Z,71.07
2017-11-17T18:10:54.514Z,69.40
2017-11-17T18:13:22.021Z,75.83
2017-11-17T18:15:49.544Z,63.03
2017-11-17T18:18:17.484Z,92.43
2017-11-17T18:20:44.991Z,77.60
2017-11-17T18:23:12.544Z,81.63
2017-11-17T18:25:40.071Z,79.07
2017-11-17T18:28:07.623Z,93.10
2017-11-17T18:30:35.871Z,78.07
2017-11-17T18:33:03.442Z,102.13
2017-11-17T18:35:31.152Z,101.87
2017-11-17T18:37:59.043Z,101.97
2017-11-17T18:40:26.557Z,94.83
2017-11-17T18:42:54.076Z,92.63
2017-11-17T18:45:22.107Z,92.20
2017-11-17T18:47:49.614Z,101.13
2017-11-17T18:50:17.124Z,82.83
2017-11-17T18:52:44.683Z,95.43
2017-11-17T18:55:12.200Z,96.13
2017-11-17T18:57:39.752Z,111.67
2017-11-17T19:00:07.338Z,106.27
2017-11-17T19:02:34.874Z,100.87
2017-11-17T19:05:03.369Z,104.97
2017-11-17T19:07:30.960Z,106.53
2017-11-17T19:09:58.481Z,107.93
2017-11-17T19:12:25.997Z,126.70
2017-11-17T19:14:53.558Z,104.03
2017-11-17T19:17:21.072Z,108.47
2017-11-17T19:19:49.676Z,108.67
2017-11-17T19:22:17.231Z,109.80
2017-11-17T19:24:44.772Z,96.23
2017-11-17T19:27:12.905Z,104.03
2017-11-17T19:29:40.465Z,112.60
2017-11-17T19:32:07.973Z,98.43
2017-11-17T19:34:35.518Z,114.30
2017-11-17T19:37:03.052Z,124.47
2017-11-17T19:39:30.612Z,100.43
2017-11-17T19:42:00.062Z,95.40
2017-11-17T19:44:27.564Z,108.10
2017-11-17T19:46:55.112Z,97.67
2017-11-17T19:49:22.623Z,90.97
2017-11-17T19:51:50.137Z,106.23
2017-11-17T19:54:17.723Z,114.27
2017-11-17T19:56:45.292Z,103.90
2017-11-17T19:59:12.869Z,112.13
2017-11-17T20:01:41.668Z,111.13
2017-11-17T20:04:09.241Z,100.90
2017-11-17T20:06:36.749Z,110.73
2017-11-17T20:09:05.166Z,128.83
2017-11-17T20:11:32.705Z,96.67
2017-11-17T20:14:00.766Z,104.77
2017-11-17T20:16:28.955Z,108.17
2017-11-17T20:18:56.525Z,95.03
2017-11-17T20:21:24.096Z,111.07
2017-11-17T20:23:52.476Z,109.27
2017-11-17T20:26:20.132Z,121.37
2017-11-17T20:28:47.701Z,123.13
2017-11-17T20:31:15.275Z,105.40
2017-11-17T20:33:42.857Z,117.10
2017-11-17T20:36:11.199Z,104.73
2017-11-17T20:38:39.284Z,115.33
2017-11-17T20:41:06.891Z,94.47
2017-11-17T20:43:34.666Z,92.40
2017-11-17T20:46:02.276Z,110.03
2017-11-17T20:48:29.874Z,103.10
2017-11-17T20:50:57.392Z,93.27
2017-11-17T20:53:25.377Z,94.97
2017-11-17T20:55:53.176Z,96.17
2017-11-17T20:58:21.464Z,107.23
2017-11-17T21:00:49.001Z,104.47
2017-11-17T21:03:16.619Z,105.27
2017-11-17T21:05:44.183Z,96.03
2017-11-17T21:08:12.070Z,75.10
2017-11-17T21:10:39.636Z,97.73
2017-11-17T21:13:08.191Z,89.43
2017-11-17T21:15:35.792Z,106.67
2017-11-17T21:18:03.312Z,85.87
2017-11-17T21:20:31.020Z,100.87
2017-11-17T21:22:58.579Z,102.93
2017-11-17T21:25:26.368Z,116.33
2017-11-17T21:27:54.008Z,104.97
2017-11-17T21:30:21.668Z,109.23
2017-11-17T21:32:50.037Z,117.10
2017-11-17T21:35:17.565Z,132.73
2017-11-17T21:37:45.169Z,114.17
2017-11-17T21:40:12.697Z,130.33
2017-11-17T21:42:40.221Z,108.40
2017-11-17T21:45:07.776Z,110.97
2017-11-17T21:47:35.340Z,137.30
2017-11-17T21:50:03.404Z,115.00
2017-11-17T21:52:31.020Z,111.93
2017-11-17T21:54:58.552Z,112.20
2017-11-17T21:57:26.099Z,116.47
2017-11-17T21:59:53.668Z,93.17
2017-11-17T22:02:21.175Z,102.50
2017-11-17T22:04:48.684Z,87.93
2017-11-17T22:07:16.351Z,104.83
2017-11-17T22:09:43.917Z,105.03
2017-11-17T22:12:11.449Z,99.53
2017-11-17T22:14:39.020Z,106.40
2017-11-17T22:17:06.536Z,77.53
2017-11-17T22:19:34.036Z,92.03
2017-11-17T22:22:01.634Z,90.13
2017-11-17T22:24:30.155Z,78.57
2017-11-17T22:26:57.480Z,82.07
2017-11-17T22:29:25.054Z,85.50
2017-11-17T22:31:52.648Z,86.63
2017-11-17T22:34:20.941Z,87.63
2017-11-17T22:36:48.517Z,75.37
2017-11-17T22:39:16.445Z,95.03
2017-11-17T22:41:43.980Z,95.77
2017-11-17T22:44:11.497Z,96.50
2017-11-17T22:46:39.220Z,72.67
2017-11-17T22:49:06.728Z,73.93
2017-11-17T22:51:34.481Z,105.13
2017-11-17T22:54:02.145Z,91.90
2017-11-17T22:56:29.682Z,97.00
2017-11-17T22:58:57.217Z,108.53
2017-11-17T23:01:24.779Z,82.40
2017-11-17T23:03:52.288Z,80.97
2017-11-17T23:06:19.803Z,89.80
2017-11-17T23:08:47.364Z,86.60
2017-11-17T23:11:14.961Z,95.53
2017-11-17T23:13:42.487Z,72.63
2017-11-17T23:16:10.064Z,83.17
2017-11-17T23:18:37.582Z,85.43
2017-11-17T23:21:05.200Z,78.13
2017-11-17T23:23:32.766Z,80.80
2017-11-17T23:26:00.268Z,77.57
2017-11-17T23:28:27.772Z,74.53
2017-11-17T23:30:55.352Z,71.40
2017-11-17T23:33:22.865Z,71.40
2017-11-17T23:35:50.372Z,78.00
2017-11-17T23:38:17.920Z,80.73
2017-11-17T23:40:46.216Z,75.30
2017-11-17T23:43:13.728Z,70.67
2017-11-17T23:45:41.271Z,70.10
2017-11-17T23:48:08.796Z,102.70
2017-11-17T23:50:36.316Z,81.03
2017-11-17T23:53:03.868Z,93.77
2017-11-17T23:55:31.453Z,89.60
2017-11-17T23:57:58.996Z,83.00
